sensor_id;sensor_type;location;lat;lon;timestamp;P1;durP1;ratioP1;P2;durP2;ratioP2
42146;SDS011;27815;43.410;11.852;2023-01-20T00:50:14;4.82;;;3.00;;
42146;SDS011;27815;43.410;11.852;2023-01-20T00:54:20;5.90;;;3.10;;
42146;SDS011;27815;43.410;11.852;2023-01-20T01:29:57;21.73;;;12.40;;
42146;SDS011;27815;43.410;11.852;2023-01-20T02:43:47;14.02;;;8.25;;
42146;SDS011;27815;43.410;11.852;2023-01-20T03:06:36;16.20;;;9.07;;
42146;SDS011;27815;43.410;11.852;2023-01-20T05:58:45;14.63;;;7.22;;
42146;SDS011;27815;43.410;11.852;2023-01-20T06:22:23;21.30;;;9.52;;
42146;SDS011;27815;43.410;11.852;2023-01-20T06:40:02;18.05;;;9.43;;
42146;SDS011;27815;43.410;11.852;2023-01-20T06:44:05;21.15;;;11.18;;
42146;SDS011;27815;43.410;11.852;2023-01-20T06:48:08;14.70;;;8.07;;
42146;SDS011;27815;43.410;11.852;2023-01-20T06:52:11;23.05;;;11.07;;
42146;SDS011;27815;43.410;11.852;2023-01-20T06:56:14;23.70;;;12.75;;
42146;SDS011;27815;43.410;11.852;2023-01-20T07:00:18;18.75;;;10.00;;
42146;SDS011;27815;43.410;11.852;2023-01-20T07:04:28;31.90;;;12.23;;
42146;SDS011;27815;43.410;11.852;2023-01-20T07:08:52;20.98;;;10.70;;
42146;SDS011;27815;43.410;11.852;2023-01-20T07:13:03;20.63;;;10.23;;
42146;SDS011;27815;43.410;11.852;2023-01-20T07:17:08;23.13;;;11.40;;
42146;SDS011;27815;43.410;11.852;2023-01-20T07:25:19;24.93;;;11.67;;
42146;SDS011;27815;43.410;11.852;2023-01-20T07:29:21;20.20;;;9.68;;
42146;SDS011;27815;43.410;11.852;2023-01-20T07:33:25;25.65;;;12.38;;
42146;SDS011;27815;43.410;11.852;2023-01-20T07:37:32;26.38;;;12.13;;
42146;SDS011;27815;43.410;11.852;2023-01-20T07:41:35;20.17;;;10.50;;
42146;SDS011;27815;43.410;11.852;2023-01-20T07:45:38;20.17;;;10.07;;
42146;SDS011;27815;43.410;11.852;2023-01-20T07:49:41;18.65;;;9.60;;
42146;SDS011;27815;43.410;11.852;2023-01-20T07:53:44;23.60;;;10.73;;
42146;SDS011;27815;43.410;11.852;2023-01-20T07:57:52;24.08;;;11.93;;
42146;SDS011;27815;43.410;11.852;2023-01-20T08:01:54;28.83;;;15.20;;
42146;SDS011;27815;43.410;11.852;2023-01-20T08:06:00;31.25;;;14.57;;
42146;SDS011;27815;43.410;11.852;2023-01-20T08:10:04;26.98;;;13.88;;
42146;SDS011;27815;43.410;11.852;2023-01-20T08:14:07;26.38;;;12.65;;
42146;SDS011;27815;43.410;11.852;2023-01-20T08:18:10;29.33;;;13.98;;
42146;SDS011;27815;43.410;11.852;2023-01-20T08:22:13;27.55;;;13.05;;
42146;SDS011;27815;43.410;11.852;2023-01-20T08:26:16;25.38;;;12.25;;
42146;SDS011;27815;43.410;11.852;2023-01-20T08:30:20;25.73;;;12.27;;
42146;SDS011;27815;43.410;11.852;2023-01-20T08:34:23;23.05;;;12.10;;
42146;SDS011;27815;43.410;11.852;2023-01-20T08:38:26;21.33;;;11.20;;
42146;SDS011;27815;43.410;11.852;2023-01-20T08:42:29;26.98;;;13.40;;
42146;SDS011;27815;43.410;11.852;2023-01-20T08:46:32;20.77;;;11.35;;
42146;SDS011;27815;43.410;11.852;2023-01-20T08:50:35;18.27;;;10.15;;
42146;SDS011;27815;43.410;11.852;2023-01-20T08:54:38;20.58;;;10.80;;
42146;SDS011;27815;43.410;11.852;2023-01-20T08:58:41;20.33;;;10.65;;
42146;SDS011;27815;43.410;11.852;2023-01-20T09:02:44;19.30;;;11.43;;
42146;SDS011;27815;43.410;11.852;2023-01-20T09:06:47;18.23;;;10.50;;
42146;SDS011;27815;43.410;11.852;2023-01-20T09:10:52;18.90;;;11.10;;
42146;SDS011;27815;43.410;11.852;2023-01-20T09:14:55;18.40;;;11.40;;
42146;SDS011;27815;43.410;11.852;2023-01-20T09:18:58;19.75;;;11.23;;
42146;SDS011;27815;43.410;11.852;2023-01-20T09:23:01;19.92;;;11.05;;
42146;SDS011;27815;43.410;11.852;2023-01-20T09:27:04;18.98;;;11.38;;
42146;SDS011;27815;43.410;11.852;2023-01-20T09:31:08;17.75;;;11.35;;
42146;SDS011;27815;43.410;11.852;2023-01-20T09:35:11;18.33;;;11.80;;
42146;SDS011;27815;43.410;11.852;2023-01-20T09:39:15;19.73;;;11.05;;
42146;SDS011;27815;43.410;11.852;2023-01-20T09:47:59;17.88;;;11.25;;
42146;SDS011;27815;43.410;11.852;2023-01-20T09:56:48;15.73;;;10.02;;
42146;SDS011;27815;43.410;11.852;2023-01-20T10:00:56;16.07;;;10.10;;
42146;SDS011;27815;43.410;11.852;2023-01-20T10:05:10;16.45;;;10.93;;
42146;SDS011;27815;43.410;11.852;2023-01-20T10:09:23;16.27;;;10.15;;
42146;SDS011;27815;43.410;11.852;2023-01-20T10:13:58;17.42;;;10.70;;
42146;SDS011;27815;43.410;11.852;2023-01-20T10:18:27;17.00;;;10.82;;
42146;SDS011;27815;43.410;11.852;2023-01-20T10:22:43;18.92;;;11.75;;
42146;SDS011;27815;43.410;11.852;2023-01-20T10:27:00;14.35;;;9.35;;
42146;SDS011;27815;43.410;11.852;2023-01-20T10:31:04;12.38;;;7.95;;
42146;SDS011;27815;43.410;11.852;2023-01-20T10:43:50;23.63;;;21.23;;
42146;SDS011;27815;43.410;11.852;2023-01-20T10:48:16;10.77;;;7.15;;
42146;SDS011;27815;43.410;11.852;2023-01-20T10:56:53;8.25;;;5.40;;
42146;SDS011;27815;43.410;11.852;2023-01-20T11:00:59;44.00;;;33.97;;
42146;SDS011;27815;43.410;11.852;2023-01-20T11:05:15;6.88;;;5.03;;
42146;SDS011;27815;43.410;11.852;2023-01-20T11:09:33;5.97;;;3.42;;
42146;SDS011;27815;43.410;11.852;2023-01-20T11:13:40;7.13;;;4.00;;
42146;SDS011;27815;43.410;11.852;2023-01-20T11:17:43;8.32;;;4.95;;
42146;SDS011;27815;43.410;11.852;2023-01-20T11:21:47;8.45;;;6.22;;
42146;SDS011;27815;43.410;11.852;2023-01-20T11:25:54;8.85;;;5.88;;
42146;SDS011;27815;43.410;11.852;2023-01-20T11:30:03;12.30;;;7.35;;
42146;SDS011;27815;43.410;11.852;2023-01-20T11:38:48;9.02;;;7.03;;
42146;SDS011;27815;43.410;11.852;2023-01-20T11:42:52;9.65;;;7.00;;
42146;SDS011;27815;43.410;11.852;2023-01-20T11:46:56;11.52;;;7.03;;
42146;SDS011;27815;43.410;11.852;2023-01-20T11:55:25;8.18;;;5.80;;
42146;SDS011;27815;43.410;11.852;2023-01-20T11:59:30;8.60;;;5.85;;
42146;SDS011;27815;43.410;11.852;2023-01-20T12:08:01;7.53;;;4.50;;
42146;SDS011;27815;43.410;11.852;2023-01-20T12:12:11;6.88;;;4.40;;
42146;SDS011;27815;43.410;11.852;2023-01-20T12:16:35;7.10;;;4.82;;
42146;SDS011;27815;43.410;11.852;2023-01-20T12:20:47;7.00;;;4.40;;
42146;SDS011;27815;43.410;11.852;2023-01-20T12:24:59;5.57;;;3.75;;
42146;SDS011;27815;43.410;11.852;2023-01-20T12:29:16;5.38;;;3.42;;
42146;SDS011;27815;43.410;11.852;2023-01-20T12:33:37;7.10;;;4.88;;
42146;SDS011;27815;43.410;11.852;2023-01-20T12:37:52;6.57;;;4.47;;
42146;SDS011;27815;43.410;11.852;2023-01-20T12:54:39;5.00;;;3.10;;
42146;SDS011;27815;43.410;11.852;2023-01-20T13:08:07;27.92;;;16.33;;
42146;SDS011;27815;43.410;11.852;2023-01-20T13:20:55;4.45;;;1.58;;
42146;SDS011;27815;43.410;11.852;2023-01-20T13:24:58;2.90;;;1.40;;
42146;SDS011;27815;43.410;11.852;2023-01-20T13:29:14;2.72;;;1.35;;
42146;SDS011;27815;43.410;11.852;2023-01-20T13:33:39;2.30;;;1.15;;
42146;SDS011;27815;43.410;11.852;2023-01-20T13:37:56;1.80;;;0.80;;
42146;SDS011;27815;43.410;11.852;2023-01-20T13:42:03;1.73;;;1.10;;
42146;SDS011;27815;43.410;11.852;2023-01-20T13:46:41;1.10;;;0.80;;
42146;SDS011;27815;43.410;11.852;2023-01-20T13:50:46;1.65;;;0.90;;
42146;SDS011;27815;43.410;11.852;2023-01-20T13:54:51;2.30;;;1.10;;
42146;SDS011;27815;43.410;11.852;2023-01-20T13:58:54;1.77;;;1.00;;
42146;SDS011;27815;43.410;11.852;2023-01-20T14:03:00;1.75;;;1.00;;
42146;SDS011;27815;43.410;11.852;2023-01-20T14:11:33;1.80;;;1.00;;
42146;SDS011;27815;43.410;11.852;2023-01-20T14:15:37;1.13;;;1.00;;
42146;SDS011;27815;43.410;11.852;2023-01-20T14:19:41;1.40;;;0.82;;
42146;SDS011;27815;43.410;11.852;2023-01-20T14:23:49;1.45;;;0.80;;
42146;SDS011;27815;43.410;11.852;2023-01-20T14:27:52;1.70;;;0.90;;
42146;SDS011;27815;43.410;11.852;2023-01-20T14:31:55;1.42;;;0.90;;
42146;SDS011;27815;43.410;11.852;2023-01-20T14:35:58;1.38;;;0.80;;
42146;SDS011;27815;43.410;11.852;2023-01-20T14:40:23;1.65;;;0.85;;
42146;SDS011;27815;43.410;11.852;2023-01-20T14:44:32;1.15;;;0.80;;
42146;SDS011;27815;43.410;11.852;2023-01-20T14:48:50;0.82;;;0.80;;
42146;SDS011;27815;43.410;11.852;2023-01-20T14:52:55;2.00;;;0.93;;
42146;SDS011;27815;43.410;11.852;2023-01-20T14:56:58;0.85;;;0.75;;
42146;SDS011;27815;43.410;11.852;2023-01-20T15:01:23;1.23;;;0.98;;
42146;SDS011;27815;43.410;11.852;2023-01-20T15:05:28;1.55;;;1.08;;
42146;SDS011;27815;43.410;11.852;2023-01-20T15:09:33;1.85;;;1.00;;
42146;SDS011;27815;43.410;11.852;2023-01-20T15:13:37;2.42;;;1.10;;
42146;SDS011;27815;43.410;11.852;2023-01-20T15:22:18;6.50;;;3.83;;
42146;SDS011;27815;43.410;11.852;2023-01-20T15:30:25;3.60;;;1.80;;
42146;SDS011;27815;43.410;11.852;2023-01-20T15:34:31;2.00;;;1.20;;
42146;SDS011;27815;43.410;11.852;2023-01-20T15:38:34;2.90;;;1.17;;
42146;SDS011;27815;43.410;11.852;2023-01-20T15:42:37;3.72;;;1.05;;
42146;SDS011;27815;43.410;11.852;2023-01-20T15:46:39;2.08;;;1.08;;
42146;SDS011;27815;43.410;11.852;2023-01-20T15:50:43;3.00;;;1.00;;
42146;SDS011;27815;43.410;11.852;2023-01-20T15:54:46;1.92;;;1.00;;
42146;SDS011;27815;43.410;11.852;2023-01-20T15:58:49;3.28;;;1.42;;
42146;SDS011;27815;43.410;11.852;2023-01-20T16:02:53;2.22;;;1.40;;
42146;SDS011;27815;43.410;11.852;2023-01-20T16:06:56;2.78;;;1.33;;
42146;SDS011;27815;43.410;11.852;2023-01-20T16:10:58;2.05;;;1.00;;
42146;SDS011;27815;43.410;11.852;2023-01-20T16:15:01;3.53;;;1.20;;
42146;SDS011;27815;43.410;11.852;2023-01-20T16:19:04;3.03;;;1.40;;
42146;SDS011;27815;43.410;11.852;2023-01-20T16:23:07;3.00;;;1.48;;
42146;SDS011;27815;43.410;11.852;2023-01-20T16:27:20;4.20;;;2.55;;
42146;SDS011;27815;43.410;11.852;2023-01-20T16:31:24;2.33;;;1.50;;
42146;SDS011;27815;43.410;11.852;2023-01-20T16:35:28;3.65;;;2.05;;
42146;SDS011;27815;43.410;11.852;2023-01-20T16:39:31;3.95;;;1.60;;
42146;SDS011;27815;43.410;11.852;2023-01-20T16:43:34;3.20;;;1.60;;
42146;SDS011;27815;43.410;11.852;2023-01-20T16:47:43;3.63;;;1.90;;
42146;SDS011;27815;43.410;11.852;2023-01-20T16:51:46;3.40;;;1.73;;
42146;SDS011;27815;43.410;11.852;2023-01-20T16:55:49;4.68;;;2.08;;
42146;SDS011;27815;43.410;11.852;2023-01-20T16:59:51;6.97;;;3.47;;
42146;SDS011;27815;43.410;11.852;2023-01-20T17:03:58;4.53;;;2.28;;
42146;SDS011;27815;43.410;11.852;2023-01-20T17:08:02;4.50;;;1.80;;
42146;SDS011;27815;43.410;11.852;2023-01-20T17:12:05;2.75;;;1.55;;
42146;SDS011;27815;43.410;11.852;2023-01-20T17:16:08;5.18;;;1.63;;
42146;SDS011;27815;43.410;11.852;2023-01-20T17:20:11;3.22;;;1.60;;
42146;SDS011;27815;43.410;11.852;2023-01-20T17:24:14;3.28;;;1.70;;
42146;SDS011;27815;43.410;11.852;2023-01-20T17:28:17;2.30;;;1.45;;
42146;SDS011;27815;43.410;11.852;2023-01-20T17:32:19;3.35;;;1.70;;
42146;SDS011;27815;43.410;11.852;2023-01-20T17:36:22;2.60;;;1.38;;
42146;SDS011;27815;43.410;11.852;2023-01-20T17:40:25;4.00;;;2.10;;
42146;SDS011;27815;43.410;11.852;2023-01-20T17:44:28;3.00;;;1.83;;
42146;SDS011;27815;43.410;11.852;2023-01-20T17:48:31;2.38;;;1.50;;
42146;SDS011;27815;43.410;11.852;2023-01-20T17:52:34;4.40;;;2.15;;
42146;SDS011;27815;43.410;11.852;2023-01-20T17:56:37;4.15;;;1.98;;
42146;SDS011;27815;43.410;11.852;2023-01-20T18:00:40;3.78;;;1.80;;
42146;SDS011;27815;43.410;11.852;2023-01-20T18:04:43;4.20;;;2.17;;
42146;SDS011;27815;43.410;11.852;2023-01-20T18:08:53;5.07;;;4.05;;
42146;SDS011;27815;43.410;11.852;2023-01-20T18:13:00;4.13;;;2.65;;
42146;SDS011;27815;43.410;11.852;2023-01-20T18:17:03;4.35;;;2.70;;
42146;SDS011;27815;43.410;11.852;2023-01-20T18:21:13;2.60;;;1.40;;
42146;SDS011;27815;43.410;11.852;2023-01-20T18:25:17;3.55;;;2.00;;
42146;SDS011;27815;43.410;11.852;2023-01-20T18:29:20;4.28;;;2.20;;
42146;SDS011;27815;43.410;11.852;2023-01-20T18:33:23;3.25;;;1.40;;
42146;SDS011;27815;43.410;11.852;2023-01-20T18:37:26;3.35;;;1.60;;
42146;SDS011;27815;43.410;11.852;2023-01-20T18:41:30;4.97;;;2.10;;
42146;SDS011;27815;43.410;11.852;2023-01-20T18:45:36;4.40;;;1.90;;
42146;SDS011;27815;43.410;11.852;2023-01-20T18:49:39;26.15;;;15.38;;
42146;SDS011;27815;43.410;11.852;2023-01-20T18:53:42;5.75;;;2.85;;
42146;SDS011;27815;43.410;11.852;2023-01-20T18:57:46;3.20;;;1.80;;
42146;SDS011;27815;43.410;11.852;2023-01-20T19:01:49;3.40;;;1.70;;
42146;SDS011;27815;43.410;11.852;2023-01-20T19:05:52;3.83;;;1.90;;
42146;SDS011;27815;43.410;11.852;2023-01-20T19:09:55;5.20;;;2.17;;
42146;SDS011;27815;43.410;11.852;2023-01-20T19:13:58;3.97;;;1.80;;
42146;SDS011;27815;43.410;11.852;2023-01-20T19:18:04;3.30;;;1.77;;
42146;SDS011;27815;43.410;11.852;2023-01-20T19:22:07;3.75;;;1.80;;
42146;SDS011;27815;43.410;11.852;2023-01-20T19:26:12;4.40;;;1.90;;
42146;SDS011;27815;43.410;11.852;2023-01-20T19:30:19;4.13;;;2.00;;
42146;SDS011;27815;43.410;11.852;2023-01-20T19:34:23;5.03;;;1.92;;
42146;SDS011;27815;43.410;11.852;2023-01-20T19:38:26;3.92;;;2.00;;
42146;SDS011;27815;43.410;11.852;2023-01-20T19:42:29;5.93;;;2.25;;
42146;SDS011;27815;43.410;11.852;2023-01-20T19:46:35;3.83;;;1.70;;
42146;SDS011;27815;43.410;11.852;2023-01-20T19:50:40;3.22;;;1.77;;
42146;SDS011;27815;43.410;11.852;2023-01-20T19:54:43;3.67;;;1.60;;
42146;SDS011;27815;43.410;11.852;2023-01-20T19:58:46;4.38;;;1.67;;
42146;SDS011;27815;43.410;11.852;2023-01-20T20:02:51;3.42;;;1.80;;
42146;SDS011;27815;43.410;11.852;2023-01-20T20:06:56;3.97;;;2.08;;
42146;SDS011;27815;43.410;11.852;2023-01-20T20:10:59;3.55;;;1.60;;
42146;SDS011;27815;43.410;11.852;2023-01-20T20:15:05;5.68;;;2.08;;
42146;SDS011;27815;43.410;11.852;2023-01-20T20:19:28;2.72;;;1.70;;
42146;SDS011;27815;43.410;11.852;2023-01-20T20:23:36;3.17;;;1.85;;
42146;SDS011;27815;43.410;11.852;2023-01-20T20:27:40;3.88;;;1.90;;
42146;SDS011;27815;43.410;11.852;2023-01-20T20:31:43;4.45;;;2.03;;
42146;SDS011;27815;43.410;11.852;2023-01-20T20:35:50;3.92;;;2.20;;
42146;SDS011;27815;43.410;11.852;2023-01-20T20:40:04;10.95;;;6.25;;
42146;SDS011;27815;43.410;11.852;2023-01-20T20:48:41;6.53;;;5.63;;
42146;SDS011;27815;43.410;11.852;2023-01-20T20:52:47;3.80;;;2.10;;
42146;SDS011;27815;43.410;11.852;2023-01-20T20:56:51;5.30;;;1.80;;
42146;SDS011;27815;43.410;11.852;2023-01-20T21:00:54;3.42;;;1.80;;
42146;SDS011;27815;43.410;11.852;2023-01-20T21:04:57;3.45;;;2.00;;
42146;SDS011;27815;43.410;11.852;2023-01-20T21:09:00;3.92;;;2.22;;
42146;SDS011;27815;43.410;11.852;2023-01-20T21:13:04;4.60;;;2.13;;
42146;SDS011;27815;43.410;11.852;2023-01-20T21:17:12;3.83;;;2.15;;
42146;SDS011;27815;43.410;11.852;2023-01-20T21:21:15;7.28;;;2.60;;
42146;SDS011;27815;43.410;11.852;2023-01-20T21:25:18;4.18;;;2.50;;
42146;SDS011;27815;43.410;11.852;2023-01-20T21:29:25;5.30;;;2.75;;
42146;SDS011;27815;43.410;11.852;2023-01-20T21:33:33;19.33;;;12.85;;
42146;SDS011;27815;43.410;11.852;2023-01-20T21:37:39;9.88;;;6.95;;
42146;SDS011;27815;43.410;11.852;2023-01-20T21:41:42;6.10;;;2.80;;
42146;SDS011;27815;43.410;11.852;2023-01-20T21:45:51;4.22;;;2.33;;
42146;SDS011;27815;43.410;11.852;2023-01-20T21:49:58;3.78;;;1.98;;
42146;SDS011;27815;43.410;11.852;2023-01-20T21:54:20;3.67;;;1.58;;
42146;SDS011;27815;43.410;11.852;2023-01-20T21:58:23;5.55;;;2.00;;
42146;SDS011;27815;43.410;11.852;2023-01-20T22:02:27;3.78;;;2.10;;
42146;SDS011;27815;43.410;11.852;2023-01-20T22:06:30;2.80;;;1.58;;
42146;SDS011;27815;43.410;11.852;2023-01-20T22:10:34;3.95;;;1.90;;
42146;SDS011;27815;43.410;11.852;2023-01-20T22:14:37;3.10;;;1.80;;
42146;SDS011;27815;43.410;11.852;2023-01-20T22:18:43;2.97;;;1.73;;
42146;SDS011;27815;43.410;11.852;2023-01-20T22:22:46;3.35;;;1.80;;
42146;SDS011;27815;43.410;11.852;2023-01-20T22:26:49;4.60;;;2.00;;
42146;SDS011;27815;43.410;11.852;2023-01-20T22:30:53;5.38;;;2.20;;
42146;SDS011;27815;43.410;11.852;2023-01-20T22:34:56;6.03;;;2.65;;
42146;SDS011;27815;43.410;11.852;2023-01-20T22:38:58;5.00;;;1.90;;
42146;SDS011;27815;43.410;11.852;2023-01-20T22:43:01;4.82;;;2.15;;
42146;SDS011;27815;43.410;11.852;2023-01-20T22:47:04;3.85;;;1.80;;
42146;SDS011;27815;43.410;11.852;2023-01-20T22:51:12;3.20;;;1.83;;
42146;SDS011;27815;43.410;11.852;2023-01-20T22:55:17;4.50;;;2.10;;
42146;SDS011;27815;43.410;11.852;2023-01-20T22:59:19;5.15;;;2.20;;
42146;SDS011;27815;43.410;11.852;2023-01-20T23:03:22;4.13;;;2.03;;
42146;SDS011;27815;43.410;11.852;2023-01-20T23:07:25;3.60;;;1.98;;
42146;SDS011;27815;43.410;11.852;2023-01-20T23:11:28;6.68;;;2.28;;
42146;SDS011;27815;43.410;11.852;2023-01-20T23:15:31;5.03;;;2.13;;
42146;SDS011;27815;43.410;11.852;2023-01-20T23:19:34;5.20;;;2.17;;
